CYBU

Nipawin Airport

Nipawin, Saskatchewan, Canada
METAR CYBU 220927Z AUTO 03010KT 6SM -SN OVC009 M15/M16 A3008 RMK SLP223
Observed Flight Rules
Jan-22 @ 09:27 UTC (19 minutes ago) Instrument Flight Rules
Wind Visibility Clouds Conditions
30° at 10 knots 6 miles
  • Overcast at 900' AGL
  • Light Snow
Temperatures Readings
Current -15°C / 5°F
Dewpoint -16°C / 3°F
Humidity 92%
Altimeter 30.08" Hg
Pressure 1022.3 hPa
Elevation 374
METAR CYBU 220927Z AUTO 03010KT 6SM -SN OVC009 M15/M16 A3008 RMK SLP223
Observed Flight Rules
Jan-22 @ 09:27 UTC
(19 minutes ago)
IFR
Wind Visibility
30° at 10 knots 6 miles
Clouds
  • Overcast at 900' AGL
Conditions
  • Light Snow
Temperature Dewpoint
-15°C / 5°F -16°C / 3°F
Humidity Altimeter Pressure
92% 30.08" Hg 1022.3 hPa